Time;durP1;ratioP1;P1;durP2;ratioP2;P2;SDS_P1;SDS_P2;PMS_P1;PMS_P2;Temp;Humidity;BMP_temperature;BMP_pressure;BME280_temperature;BME280_humidity;BME280_pressure;Samples;Min_cycle;Max_cycle;Signal;HPM_P1;HPM_P2
2021/01/07 00:02:35;;;;;;;38.30;18.47;;;4.20;99.90;;;;;;6240478;23;20148;-92
2021/01/07 00:05:01;;;;;;;34.67;18.93;;;4.20;99.90;;;;;;6215045;23;20158;-92
2021/01/07 00:07:40;;;;;;;;;;;;;;;;;;;;;
2021/01/07 00:10:06;;;;;;;37.80;19.40;;;4.30;99.90;;;;;;6216001;23;20278;-92
2021/01/07 00:12:32;;;;;;;38.10;19.50;;;4.40;99.90;;;;;;6239835;23;20239;-92
2021/01/07 00:15:00;;;;;;;39.40;20.50;;;4.50;99.90;;;;;;6239878;23;20175;-93
2021/01/07 00:17:35;;;;;;;34.00;18.93;;;4.40;99.90;;;;;;6240296;23;20154;-92
2021/01/07 00:20:09;;;;;;;38.30;20.13;;;4.40;99.90;;;;;;6240881;23;20148;-92
2021/01/07 00:22:46;;;;;;;32.40;18.20;;;4.20;99.90;;;;;;6240077;23;20150;-92
2021/01/07 00:25:17;;;;;;;40.83;20.33;;;4.20;99.90;;;;;;6214511;23;20227;-93
2021/01/07 00:27:45;;;;;;;36.43;18.43;;;4.30;99.90;;;;;;6241028;23;20223;-92
2021/01/07 00:30:11;;;;;;;38.47;19.50;;;4.40;99.90;;;;;;6215108;23;20203;-92
2021/01/07 00:32:45;;;;;;;45.73;19.67;;;4.40;99.90;;;;;;6240151;23;20143;-93
2021/01/07 00:35:22;;;;;;;36.30;18.77;;;4.40;99.90;;;;;;6217191;23;20167;-92
2021/01/07 00:37:47;;;;;;;31.70;17.23;;;4.40;99.90;;;;;;6214629;23;20159;-92
2021/01/07 00:40:13;;;;;;;34.57;18.77;;;4.30;99.90;;;;;;6239119;23;20164;-93
2021/01/07 00:42:39;;;;;;;41.13;20.00;;;4.30;99.90;;;;;;6238660;23;20156;-92
2021/01/07 00:45:05;;;;;;;33.07;18.20;;;4.30;99.90;;;;;;6213523;23;20140;-92
2021/01/07 00:47:31;;;;;;;42.20;20.90;;;4.30;99.90;;;;;;6237872;23;20576;-93
2021/01/07 00:49:56;;;;;;;34.83;18.43;;;4.40;99.90;;;;;;6212476;23;20183;-92
2021/01/07 00:52:22;;;;;;;36.33;19.33;;;4.40;99.90;;;;;;6240689;23;20174;-92
2021/01/07 00:54:59;;;;;;;34.90;18.73;;;4.50;99.90;;;;;;6242245;23;20152;-92
2021/01/07 00:57:29;;;;;;;37.27;20.03;;;4.60;99.90;;;;;;6214643;23;20140;-92
2021/01/07 00:59:57;;;;;;;40.60;19.83;;;4.70;99.90;;;;;;6240489;23;20178;-92
2021/01/07 01:03:00;;;;;;;38.00;19.47;;;4.60;99.90;;;;;;6215014;23;20155;-92
2021/01/07 01:05:54;;;;;;;45.77;21.87;;;4.50;99.90;;;;;;6207720;23;20170;-93
2021/01/07 01:18:55;;;;;;;41.77;20.47;;;4.40;99.90;;;;;;6192861;23;20270;-92
2021/01/07 01:21:21;;;;;;;43.93;21.23;;;4.30;99.90;;;;;;6210572;23;20167;-92
2021/01/07 01:24:03;;;;;;;38.57;21.03;;;4.30;99.90;;;;;;6240934;23;20238;-92
2021/01/07 01:26:29;;;;;;;40.50;20.27;;;4.40;99.90;;;;;;6214959;23;20468;-92
2021/01/07 01:29:05;;;;;;;41.13;20.50;;;4.40;99.90;;;;;;6239978;23;20182;-92
2021/01/07 01:31:36;;;;;;;38.00;19.70;;;4.30;99.90;;;;;;6241560;23;20477;-92
2021/01/07 01:34:02;;;;;;;40.87;20.57;;;4.40;99.90;;;;;;6241304;23;20198;-92
2021/01/07 01:36:31;;;;;;;44.07;20.87;;;4.40;99.90;;;;;;6242282;23;20136;-92
2021/01/07 01:38:59;;;;;;;43.97;21.33;;;4.30;99.90;;;;;;6216207;23;20148;-91
2021/01/07 01:41:27;;;;;;;44.03;21.80;;;4.20;99.90;;;;;;6216467;23;20151;-93
2021/01/07 01:43:55;;;;;;;47.20;21.20;;;4.20;99.90;;;;;;6241667;23;20182;-93
2021/01/07 01:46:20;;;;;;;46.83;24.37;;;4.20;99.90;;;;;;6216258;23;20203;-93
2021/01/07 01:48:50;;;;;;;45.90;22.33;;;4.20;99.90;;;;;;6242175;23;20179;-94
2021/01/07 01:51:18;;;;;;;45.43;24.17;;;4.30;99.90;;;;;;6217195;23;20163;-91
2021/01/07 01:53:44;;;;;;;45.60;22.33;;;4.20;99.90;;;;;;6191067;23;20537;-93
2021/01/07 01:56:10;;;;;;;39.40;20.53;;;4.20;99.90;;;;;;6241800;23;20150;-92
2021/01/07 01:58:39;;;;;;;40.67;21.27;;;4.10;99.90;;;;;;6241788;23;20232;-93
2021/01/07 02:01:07;;;;;;;40.13;20.20;;;4.00;99.90;;;;;;6213380;23;20144;-92
2021/01/07 02:03:36;;;;;;;45.57;19.53;;;3.80;99.90;;;;;;6214583;23;20577;-93
2021/01/07 02:06:03;;;;;;;44.50;21.77;;;3.90;99.90;;;;;;6240630;23;20184;-93
2021/01/07 02:08:30;;;;;;;42.33;20.90;;;4.00;99.90;;;;;;6214637;23;20167;-93
2021/01/07 02:10:59;;;;;;;41.63;20.40;;;3.90;99.90;;;;;;6240393;23;20184;-93
2021/01/07 02:13:28;;;;;;;38.03;19.33;;;4.10;99.90;;;;;;6240996;23;20140;-93
2021/01/07 02:15:53;;;;;;;39.10;22.27;;;4.20;99.90;;;;;;6214578;23;20209;-93
2021/01/07 02:18:32;;;;;;;37.87;19.70;;;4.10;99.90;;;;;;6241818;23;20484;-94
2021/01/07 02:21:59;;;;;;;40.70;19.73;;;4.10;99.90;;;;;;6240900;23;20186;-94
2021/01/07 02:25:04;;;;;;;;;;;;;;;;;;;;;
2021/01/07 02:28:43;;;;;;;;;;;;;;;;;;;;;
2021/01/07 02:31:37;;;;;;;;;;;;;;;;;;;;;
2021/01/07 02:34:07;;;;;;;41.70;20.53;;;3.80;99.90;;;;;;6221735;23;20600;-93
2021/01/07 02:36:41;;;;;;;44.00;20.73;;;3.80;99.90;;;;;;6191549;23;20233;-94
2021/01/07 02:39:06;;;;;;;54.80;25.63;;;3.80;99.90;;;;;;6240592;23;20157;-95
2021/01/07 02:41:58;;;;;;;45.93;22.03;;;3.90;99.90;;;;;;6241000;23;20148;-93
2021/01/07 02:44:31;;;;;;;46.23;22.07;;;3.90;99.90;;;;;;6216299;23;20708;-94
2021/01/07 02:46:58;;;;;;;42.37;21.60;;;3.90;99.90;;;;;;6216371;23;20248;-94
2021/01/07 02:49:26;;;;;;;49.07;23.30;;;4.00;99.90;;;;;;6215587;23;20186;-93
2021/01/07 02:51:52;;;;;;;59.67;27.97;;;3.90;99.90;;;;;;6223754;23;20577;-94
2021/01/07 02:54:18;;;;;;;46.60;23.13;;;3.90;99.90;;;;;;6251270;23;20152;-93
2021/01/07 02:56:43;;;;;;;52.13;26.23;;;4.00;99.90;;;;;;6229904;23;20135;-93
2021/01/07 02:59:10;;;;;;;47.67;23.87;;;4.10;99.90;;;;;;6256691;23;20148;-93
2021/01/07 03:01:36;;;;;;;47.73;23.57;;;4.20;99.90;;;;;;6255771;23;20157;-94
2021/01/07 03:04:01;;;;;;;42.10;21.37;;;4.20;99.90;;;;;;6251291;23;20151;-93
2021/01/07 03:06:27;;;;;;;50.90;25.67;;;4.20;99.90;;;;;;6225558;23;20191;-93
2021/01/07 03:09:08;;;;;;;;;;;;;;;;;;;;;
2021/01/07 03:12:00;;;;;;;;;;;;;;;;;;;;;
2021/01/07 03:15:04;;;;;;;;;;;;;;;;;;;;;
2021/01/07 03:18:21;;;;;;;;;;;;;;;;;;;;;
2021/01/07 03:20:38;;;;;;;45.67;21.50;;;4.00;99.90;;;;;;6209849;23;20157;-93
2021/01/07 03:23:12;;;;;;;39.83;20.67;;;4.10;99.90;;;;;;6216550;23;20151;-93
2021/01/07 03:25:38;;;;;;;39.63;20.60;;;4.10;99.90;;;;;;6190912;23;20175;-93
2021/01/07 03:28:10;;;;;;;44.60;22.07;;;4.00;99.90;;;;;;6215284;23;20155;-94
2021/01/07 03:30:38;;;;;;;47.23;22.17;;;3.90;99.90;;;;;;6240135;23;20195;-94
2021/01/07 03:33:05;;;;;;;41.07;21.40;;;3.90;99.90;;;;;;6240260;23;20587;-94
2021/01/07 03:35:33;;;;;;;41.50;21.00;;;3.80;99.90;;;;;;6216923;23;20164;-94
2021/01/07 03:37:59;;;;;;;44.83;20.63;;;3.80;99.90;;;;;;6239965;23;20247;-94
2021/01/07 03:40:40;;;;;;;45.27;21.37;;;3.90;99.90;;;;;;6240648;23;20230;-93
2021/01/07 03:49:36;;;;;;;42.13;19.30;;;4.10;99.90;;;;;;6204811;23;20577;-92
2021/01/07 03:52:25;;;;;;;;;;;;;;;;;;;;;
2021/01/07 03:55:01;;;;;;;45.30;21.43;;;4.00;99.90;;;;;;6215992;23;20219;-92
2021/01/07 03:57:28;;;;;;;39.83;20.27;;;3.90;99.90;;;;;;6239992;23;20144;-92
2021/01/07 03:59:54;;;;;;;47.63;21.63;;;4.20;99.90;;;;;;6238881;23;20149;-91
2021/01/07 04:02:20;;;;;;;42.87;20.10;;;4.30;99.90;;;;;;6240667;23;20641;-91
2021/01/07 04:04:46;;;;;;;41.73;21.37;;;4.40;99.90;;;;;;6240131;23;20246;-91
2021/01/07 04:07:26;;;;;;;38.00;19.23;;;4.40;99.90;;;;;;6245135;23;20633;-93
2021/01/07 04:09:54;;;;;;;38.23;18.67;;;4.30;99.90;;;;;;6233407;22;20200;-94
2021/01/07 04:12:20;;;;;;;38.77;18.70;;;4.30;99.90;;;;;;6242406;22;20176;-89
2021/01/07 04:14:46;;;;;;;38.77;18.60;;;4.10;99.90;;;;;;6266439;22;20150;-94
2021/01/07 04:17:14;;;;;;;36.70;18.27;;;4.10;99.90;;;;;;6261295;23;20579;-94
2021/01/07 04:19:42;;;;;;;33.83;18.10;;;4.00;99.90;;;;;;6226097;23;20160;-91
2021/01/07 04:22:07;;;;;;;38.63;18.70;;;4.00;99.90;;;;;;6240546;23;20179;-95
2021/01/07 04:24:34;;;;;;;35.43;16.97;;;4.00;99.90;;;;;;6240226;23;20144;-93
2021/01/07 04:27:03;;;;;;;35.77;17.37;;;4.00;99.90;;;;;;6241803;23;20154;-93
2021/01/07 04:29:29;;;;;;;29.70;16.27;;;4.10;99.90;;;;;;6216971;23;20244;-93
2021/01/07 04:31:55;;;;;;;33.43;17.27;;;4.00;99.90;;;;;;6243409;23;20136;-93
2021/01/07 04:34:20;;;;;;;30.47;16.20;;;4.00;99.90;;;;;;6242300;22;20175;-93
2021/01/07 04:36:46;;;;;;;36.30;17.00;;;4.10;99.90;;;;;;6242277;23;20184;-92
2021/01/07 04:39:12;;;;;;;28.23;14.93;;;4.00;99.90;;;;;;6242120;23;20478;-91
2021/01/07 04:41:37;;;;;;;30.53;15.20;;;4.10;99.90;;;;;;6245931;23;20148;-91
2021/01/07 04:44:04;;;;;;;29.03;15.07;;;4.10;99.90;;;;;;6241618;23;20165;-91
2021/01/07 04:46:29;;;;;;;31.03;15.43;;;4.00;99.90;;;;;;6240678;23;20500;-91
2021/01/07 04:48:55;;;;;;;28.47;14.93;;;4.10;99.90;;;;;;6241791;23;20278;-92
2021/01/07 04:51:21;;;;;;;29.33;15.77;;;4.10;99.90;;;;;;6241120;23;20673;-91
2021/01/07 04:53:48;;;;;;;28.90;14.60;;;4.00;99.90;;;;;;6241145;23;20149;-91
2021/01/07 04:56:14;;;;;;;27.30;15.07;;;4.10;99.90;;;;;;6242470;23;20475;-92
2021/01/07 04:58:41;;;;;;;25.83;13.80;;;4.00;99.90;;;;;;6242087;23;20150;-91
2021/01/07 05:01:08;;;;;;;26.77;14.63;;;4.10;99.90;;;;;;6242360;23;20150;-91
2021/01/07 05:03:35;;;;;;;22.67;13.03;;;4.10;99.90;;;;;;6241217;23;20143;-92
2021/01/07 05:06:01;;;;;;;28.83;14.43;;;4.20;99.90;;;;;;6241483;23;20148;-92
2021/01/07 05:08:27;;;;;;;29.83;15.33;;;4.20;99.90;;;;;;6216017;23;20580;-91
2021/01/07 05:10:53;;;;;;;27.40;14.23;;;4.30;99.90;;;;;;6241780;23;20206;-92
2021/01/07 05:13:21;;;;;;;26.57;14.60;;;4.20;99.90;;;;;;6242236;23;20144;-91
2021/01/07 05:15:47;;;;;;;82.07;28.93;;;4.20;99.90;;;;;;6241249;23;20148;-92
2021/01/07 05:18:13;;;;;;;27.03;14.20;;;4.20;99.90;;;;;;6242873;23;20234;-91
2021/01/07 05:20:39;;;;;;;26.83;14.93;;;4.20;99.90;;;;;;6241359;23;20221;-93
2021/01/07 05:23:07;;;;;;;29.47;16.27;;;4.10;99.90;;;;;;6241865;23;20233;-93
2021/01/07 05:25:44;;;;;;;27.70;15.87;;;4.10;99.90;;;;;;6244199;23;20627;-91
2021/01/07 05:28:11;;;;;;;26.63;14.43;;;3.90;99.90;;;;;;6244232;23;20227;-91
2021/01/07 05:30:37;;;;;;;50.87;21.57;;;4.00;99.90;;;;;;6242201;23;20543;-91
2021/01/07 05:33:05;;;;;;;31.23;16.97;;;4.20;99.90;;;;;;6216111;23;20143;-91
2021/01/07 05:35:31;;;;;;;27.90;15.40;;;4.20;99.90;;;;;;6241448;22;20171;-91
2021/01/07 05:37:59;;;;;;;88.17;33.97;;;4.10;99.90;;;;;;6244810;23;20575;-91
2021/01/07 05:40:26;;;;;;;83.70;34.60;;;4.10;99.90;;;;;;6243862;23;20183;-91
2021/01/07 05:42:56;;;;;;;355.00;124.77;;;4.10;99.90;;;;;;6217668;23;20151;-92
2021/01/07 05:45:22;;;;;;;62.23;30.90;;;4.40;99.90;;;;;;6243640;23;20476;-92
2021/01/07 05:47:52;;;;;;;36.03;18.73;;;4.40;99.90;;;;;;6246197;23;20154;-91
2021/01/07 05:50:20;;;;;;;70.27;30.00;;;4.30;99.90;;;;;;6249059;23;20526;-92
2021/01/07 05:52:47;;;;;;;25.13;14.33;;;4.30;99.90;;;;;;6250073;23;20146;-91
2021/01/07 05:55:17;;;;;;;25.93;13.83;;;4.20;99.90;;;;;;6261972;23;20164;-91
2021/01/07 05:57:44;;;;;;;31.27;17.57;;;4.10;99.90;;;;;;6239350;23;20155;-91
2021/01/07 06:00:15;;;;;;;29.20;17.37;;;4.10;99.90;;;;;;6226939;23;20192;-91
2021/01/07 06:02:42;;;;;;;24.00;12.73;;;4.00;99.90;;;;;;6244343;23;20166;-92
2021/01/07 06:05:15;;;;;;;24.27;14.70;;;4.10;99.90;;;;;;6242758;23;20145;-91
2021/01/07 06:07:41;;;;;;;22.03;12.33;;;4.20;99.90;;;;;;6216513;23;20148;-90
2021/01/07 06:10:12;;;;;;;27.00;14.27;;;4.00;99.90;;;;;;6216054;23;20200;-91
2021/01/07 06:12:38;;;;;;;25.67;15.17;;;3.90;99.90;;;;;;6242648;23;20179;-91
2021/01/07 06:15:08;;;;;;;24.50;13.97;;;3.70;99.90;;;;;;6190972;23;20156;-92
2021/01/07 06:17:34;;;;;;;27.47;15.80;;;3.60;99.90;;;;;;6240672;23;20216;-90
2021/01/07 06:20:10;;;;;;;26.07;14.87;;;3.60;99.90;;;;;;6241801;23;20591;-92
2021/01/07 06:22:39;;;;;;;27.27;15.30;;;3.60;99.90;;;;;;6243432;23;20224;-91
2021/01/07 06:25:11;;;;;;;38.47;24.00;;;3.70;99.90;;;;;;6243315;23;20456;-91
2021/01/07 06:27:41;;;;;;;68.10;44.77;;;3.70;99.90;;;;;;6244447;23;20208;-91
2021/01/07 06:30:06;;;;;;;32.57;18.77;;;3.70;99.90;;;;;;6218238;23;20179;-91
2021/01/07 06:32:33;;;;;;;28.47;17.93;;;3.80;99.90;;;;;;6217688;23;20583;-92
2021/01/07 06:35:00;;;;;;;25.67;16.00;;;3.80;99.90;;;;;;6215738;23;20482;-91
2021/01/07 06:37:34;;;;;;;27.27;15.50;;;3.80;99.90;;;;;;6241109;23;20147;-91
2021/01/07 06:40:04;;;;;;;26.40;15.93;;;3.80;99.90;;;;;;6213324;23;20200;-92
2021/01/07 06:42:32;;;;;;;29.67;16.43;;;3.80;99.90;;;;;;6215360;23;20227;-91
2021/01/07 06:44:59;;;;;;;29.90;16.97;;;3.80;99.90;;;;;;6240057;23;20148;-93
2021/01/07 06:47:28;;;;;;;31.30;16.73;;;3.80;99.90;;;;;;6234629;23;20149;-92
2021/01/07 06:49:54;;;;;;;29.20;15.47;;;3.80;99.90;;;;;;6239516;23;20198;-92
2021/01/07 06:52:25;;;;;;;29.30;16.53;;;3.80;99.90;;;;;;6240839;23;20236;-90
2021/01/07 06:54:56;;;;;;;29.60;16.47;;;3.70;99.90;;;;;;6218901;23;20150;-93
2021/01/07 06:57:21;;;;;;;30.83;17.87;;;3.70;99.90;;;;;;6242097;23;20537;-90
2021/01/07 06:59:57;;;;;;;29.63;17.50;;;3.70;99.90;;;;;;6241903;23;20205;-92
2021/01/07 07:02:23;;;;;;;28.57;16.37;;;3.70;99.90;;;;;;6240531;23;20140;-93
2021/01/07 07:05:04;;;;;;;34.43;17.43;;;3.80;99.90;;;;;;6240528;23;20238;-92
2021/01/07 07:07:38;;;;;;;29.03;16.83;;;3.80;99.90;;;;;;6215629;23;20663;-90
2021/01/07 07:10:20;;;;;;;33.03;17.97;;;3.80;99.90;;;;;;6214029;23;20341;-92
2021/01/07 07:12:48;;;;;;;32.17;16.90;;;3.80;99.90;;;;;;6221353;23;20153;-91
2021/01/07 07:15:24;;;;;;;32.00;16.73;;;3.80;99.90;;;;;;6267317;22;20449;-91
2021/01/07 07:17:54;;;;;;;33.73;16.83;;;3.80;99.90;;;;;;6266563;22;20163;-92
2021/01/07 07:20:21;;;;;;;31.70;16.50;;;3.90;99.90;;;;;;6265593;22;20173;-90
2021/01/07 07:22:47;;;;;;;32.73;16.57;;;3.90;99.90;;;;;;6247986;23;20149;-92
2021/01/07 07:25:21;;;;;;;33.03;16.73;;;4.10;99.90;;;;;;6244013;23;20202;-91
2021/01/07 07:28:05;;;;;;;39.20;21.27;;;4.10;99.90;;;;;;6240884;23;20227;-89
2021/01/07 07:30:35;;;;;;;33.87;17.97;;;4.00;99.90;;;;;;6240120;23;20621;-90
2021/01/07 07:33:02;;;;;;;36.60;18.97;;;3.90;99.90;;;;;;6240389;23;20144;-91
2021/01/07 07:35:35;;;;;;;36.33;17.03;;;3.90;99.90;;;;;;6241336;22;20597;-90
2021/01/07 08:32:22;;;;;;;;;;;;;;;;;;;;;
2021/01/07 08:42:02;;;;;;;37.47;23.60;;;4.00;99.90;;;;;;6028272;23;20163;-90
2021/01/07 08:44:31;;;;;;;79.93;36.70;;;4.10;99.90;;;;;;6183042;23;20214;-93
2021/01/07 08:47:19;;;;;;;31.47;18.37;;;4.10;99.90;;;;;;6216205;23;20495;-91
2021/01/07 10:26:24;;;;;;;;;;;;;;;;;;;;;
2021/01/07 10:28:51;;;;;;;11.87;8.17;;;5.40;99.90;;;;;;6273837;22;20265;-91
2021/01/07 10:31:18;;;;;;;22.10;12.47;;;5.50;99.90;;;;;;6249114;22;20173;-91
2021/01/07 10:37:21;;;;;;;13.30;8.63;;;6.00;99.90;;;;;;6219894;23;20189;-94
2021/01/07 10:39:48;;;;;;;13.37;8.83;;;6.20;99.90;;;;;;6217223;23;20159;-93
2021/01/07 10:42:16;;;;;;;12.70;7.67;;;6.10;99.90;;;;;;6246561;23;20140;-92
2021/01/07 10:44:44;;;;;;;10.07;7.13;;;6.40;99.90;;;;;;6220621;23;20216;-91
2021/01/07 10:47:15;;;;;;;13.37;6.57;;;6.60;99.90;;;;;;6218136;23;20158;-92
2021/01/07 10:49:45;;;;;;;12.20;5.67;;;6.90;99.90;;;;;;6219241;23;20186;-92
2021/01/07 10:52:35;;;;;;;13.10;7.87;;;7.00;99.90;;;;;;6219501;23;20147;-92
2021/01/07 10:55:32;;;;;;;;;;;;;;;;;;;;;
2021/01/07 10:58:27;;;;;;;;;;;;;;;;;;;;;
2021/01/07 11:01:16;;;;;;;7.80;4.83;;;8.40;99.90;;;;;;6247812;23;20227;-92
2021/01/07 11:04:01;;;;;;;7.77;3.90;;;8.80;99.90;;;;;;6220702;23;20163;-93
2021/01/07 11:06:42;;;;;;;6.80;3.40;;;8.90;99.90;;;;;;6220476;23;20588;-92
2021/01/07 11:09:30;;;;;;;6.47;4.03;;;8.70;99.90;;;;;;6221131;23;20191;-93
2021/01/07 11:12:08;;;;;;;9.37;4.83;;;8.60;99.90;;;;;;6221159;23;20143;-92
2021/01/07 11:15:02;;;;;;;9.20;5.73;;;8.20;99.90;;;;;;6220743;23;20161;-92
2021/01/07 11:17:35;;;;;;;8.07;4.20;;;7.90;99.90;;;;;;6226442;23;20525;-92
2021/01/07 11:20:08;;;;;;;8.37;5.40;;;8.00;99.90;;;;;;6228504;23;20190;-92
2021/01/07 11:22:39;;;;;;;14.87;9.10;;;8.10;99.90;;;;;;6225982;23;20198;-93
2021/01/07 11:25:06;;;;;;;12.33;6.37;;;8.10;99.90;;;;;;6222708;23;20155;-92
2021/01/07 11:27:37;;;;;;;14.23;8.57;;;8.10;99.90;;;;;;6223298;23;20157;-92
2021/01/07 11:30:17;;;;;;;19.50;10.40;;;8.00;99.90;;;;;;6227204;23;20388;-92
